createdAt,value
2022-08-16T00:00:20.519Z,100549.97
2022-08-16T00:03:13.445Z,100552.59
2022-08-16T00:06:00.532Z,100552.66
2022-08-16T00:08:46.338Z,100553.59
2022-08-16T00:11:32.191Z,100544.91
2022-08-16T00:14:24.402Z,100550.25
2022-08-16T00:17:18.822Z,100529.34
2022-08-16T00:20:12.366Z,100532.03
2022-08-16T00:22:58.378Z,100529.44
2022-08-16T00:26:35.678Z,100523.41
2022-08-16T00:28:54.863Z,100523.50
2022-08-16T00:31:59.623Z,100521.88
2022-08-16T00:34:53.024Z,100528.03
2022-08-16T00:37:57.256Z,100523.75
2022-08-16T00:40:50.771Z,100529.94
2022-08-16T00:43:42.800Z,100530.00
2022-08-16T00:47:06.019Z,100537.97
2022-08-16T00:49:56.631Z,100543.34
2022-08-16T00:52:45.872Z,100542.53
2022-08-16T00:55:39.254Z,100542.66
2022-08-16T00:58:32.264Z,100541.94
2022-08-16T01:01:20.889Z,100538.47
2022-08-16T01:04:29.218Z,100538.47
2022-08-16T01:07:17.565Z,100548.19
2022-08-16T01:10:04.484Z,100550.84
2022-08-16T01:13:12.345Z,100548.19
2022-08-16T01:16:10.357Z,100558.69
2022-08-16T01:19:11.747Z,100559.56
2022-08-16T01:22:48.559Z,100559.47
2022-08-16T01:25:18.757Z,100569.00
2022-08-16T01:28:19.916Z,100571.53
2022-08-16T01:31:08.700Z,100570.59
2022-08-16T01:33:54.040Z,100571.41
2022-08-16T01:36:40.675Z,100564.41
2022-08-16T01:39:27.063Z,100570.44
2022-08-16T01:42:13.322Z,100567.84
2022-08-16T01:45:05.049Z,100570.38
2022-08-16T01:47:52.318Z,100568.63
2022-08-16T01:51:08.338Z,100570.38
2022-08-16T01:53:55.178Z,100573.88
2022-08-16T01:56:49.129Z,100569.47
2022-08-16T01:59:37.395Z,100575.66
2022-08-16T02:02:27.271Z,100576.53
2022-08-16T02:05:14.272Z,100576.59
2022-08-16T02:08:00.650Z,100577.44
2022-08-16T02:10:47.338Z,100580.09
2022-08-16T02:13:33.428Z,100584.50
2022-08-16T02:16:20.430Z,100587.13
2022-08-16T02:19:16.055Z,100588.91
2022-08-16T02:22:08.402Z,100597.66
2022-08-16T02:24:54.974Z,100597.63
2022-08-16T02:27:41.283Z,100598.53
2022-08-16T02:30:37.518Z,100592.41
2022-08-16T02:33:43.466Z,100591.56
2022-08-16T02:36:47.988Z,100587.19
2022-08-16T02:39:37.930Z,100591.59
2022-08-16T02:42:27.316Z,100581.97
2022-08-16T02:45:14.103Z,100582.00
2022-08-16T02:48:29.001Z,100591.66
2022-08-16T02:51:11.491Z,100589.91
2022-08-16T02:54:00.001Z,100588.16
2022-08-16T02:56:47.836Z,100597.03
2022-08-16T02:59:39.590Z,100598.81
2022-08-16T03:02:31.914Z,100601.44
2022-08-16T03:05:18.813Z,100602.38
2022-08-16T03:08:06.252Z,100612.03
2022-08-16T03:11:17.816Z,100606.94
2022-08-16T03:14:08.441Z,100600.84
2022-08-16T03:16:59.343Z,100607.88
2022-08-16T03:19:59.880Z,100603.50
2022-08-16T03:22:50.821Z,100611.38
2022-08-16T03:25:40.980Z,100620.09
2022-08-16T03:28:31.491Z,100621.03
2022-08-16T03:31:16.754Z,100634.16
2022-08-16T03:34:03.649Z,100632.50
2022-08-16T03:36:49.534Z,100627.28
2022-08-16T03:39:42.765Z,100628.28
2022-08-16T03:42:29.044Z,100627.41
2022-08-16T03:45:16.069Z,100629.28
2022-08-16T03:48:02.906Z,100624.94
2022-08-16T03:50:59.748Z,100631.97
2022-08-16T03:54:00.755Z,100625.94
2022-08-16T03:56:58.069Z,100625.03
2022-08-16T03:59:48.116Z,100637.22
2022-08-16T04:02:37.109Z,100638.22
2022-08-16T04:05:30.492Z,100633.00
2022-08-16T04:08:22.320Z,100637.44
2022-08-16T04:11:16.405Z,100634.00
2022-08-16T04:14:08.937Z,100640.16
2022-08-16T04:17:09.962Z,100637.53
2022-08-16T04:19:58.228Z,100641.03
2022-08-16T04:22:44.752Z,100639.28
2022-08-16T04:25:36.684Z,100646.34
2022-08-16T04:28:51.728Z,100635.00
2022-08-16T04:31:31.721Z,100642.91
2022-08-16T04:34:21.924Z,100641.19
2022-08-16T04:37:11.252Z,100637.72
2022-08-16T04:40:05.694Z,100640.41
2022-08-16T04:42:52.357Z,100643.06
2022-08-16T04:45:43.228Z,100650.94
2022-08-16T04:48:32.792Z,100652.72
2022-08-16T04:51:23.582Z,100646.63
2022-08-16T04:54:12.101Z,100651.03
2022-08-16T04:56:58.232Z,100642.31
2022-08-16T04:59:45.089Z,100646.72
2022-08-16T05:02:42.090Z,100645.84
2022-08-16T05:05:45.084Z,100651.97
2022-08-16T05:08:47.436Z,100657.22
2022-08-16T05:11:41.932Z,100650.28
2022-08-16T05:14:45.866Z,100655.53
2022-08-16T05:17:38.840Z,100657.25
2022-08-16T05:20:39.552Z,100660.75
2022-08-16T05:23:36.475Z,100668.63
2022-08-16T05:26:22.363Z,100670.41
2022-08-16T05:29:11.085Z,100675.63
2022-08-16T05:32:33.005Z,100678.25
2022-08-16T05:35:15.140Z,100675.66
2022-08-16T05:38:33.364Z,100680.91
2022-08-16T05:41:26.800Z,100679.16
2022-08-16T05:44:23.260Z,100684.44
2022-08-16T05:47:15.295Z,100694.06
2022-08-16T05:50:05.763Z,100693.19
2022-08-16T05:52:53.392Z,100703.69
2022-08-16T05:55:41.033Z,100705.50
2022-08-16T05:58:32.731Z,100701.09
2022-08-16T06:01:20.782Z,100704.63
2022-08-16T06:04:13.681Z,100712.44
2022-08-16T06:07:24.723Z,100712.47
2022-08-16T06:10:33.367Z,100715.09
2022-08-16T06:13:21.914Z,100718.59
2022-08-16T06:16:08.193Z,100714.31
2022-08-16T06:18:57.785Z,100719.53
2022-08-16T06:21:54.892Z,100709.13
2022-08-16T06:24:52.706Z,100715.16
2022-08-16T06:27:42.004Z,100709.06
2022-08-16T06:30:45.351Z,100709.94
2022-08-16T06:33:41.399Z,100717.69
2022-08-16T06:36:28.519Z,100716.75
2022-08-16T06:39:49.259Z,100715.75
2022-08-16T06:42:57.688Z,100718.34
2022-08-16T06:46:23.271Z,100720.03
2022-08-16T06:49:20.277Z,100726.94
2022-08-16T06:52:06.224Z,100734.84
2022-08-16T06:55:13.731Z,100736.59
2022-08-16T06:58:08.396Z,100742.78
2022-08-16T07:00:58.154Z,100758.56
2022-08-16T07:03:55.581Z,100741.06
2022-08-16T07:06:48.595Z,100739.34
2022-08-16T07:09:37.782Z,100734.00
2022-08-16T07:12:23.821Z,100742.66
2022-08-16T07:15:29.318Z,100742.66
2022-08-16T07:18:20.160Z,100732.97
2022-08-16T07:21:06.139Z,100741.63
2022-08-16T07:23:57.942Z,100742.41
2022-08-16T07:26:52.482Z,100742.28
2022-08-16T07:29:40.241Z,100742.94
2022-08-16T07:32:29.486Z,100741.25
2022-08-16T07:35:17.962Z,100745.69
2022-08-16T07:38:06.420Z,100744.66
2022-08-16T07:41:12.228Z,100749.06
2022-08-16T07:44:16.728Z,100747.38
2022-08-16T07:47:05.671Z,100757.78
2022-08-16T07:49:57.965Z,100755.16
2022-08-16T07:52:45.736Z,100759.53
2022-08-16T07:55:45.792Z,100756.19
2022-08-16T07:58:39.387Z,100764.09
2022-08-16T08:01:32.112Z,100777.25
2022-08-16T08:04:20.054Z,100779.94
2022-08-16T08:07:09.033Z,100776.41
2022-08-16T08:09:57.691Z,100780.75
2022-08-16T08:12:44.387Z,100782.38
2022-08-16T08:15:34.322Z,100781.41
2022-08-16T08:18:30.610Z,100779.66
2022-08-16T08:21:27.563Z,100784.84
2022-08-16T08:24:32.059Z,100774.44
2022-08-16T08:27:22.794Z,100781.47
2022-08-16T08:30:51.443Z,100772.72
2022-08-16T08:33:17.741Z,100783.19
2022-08-16T08:36:07.673Z,100778.88
2022-08-16T08:38:55.590Z,100792.97
2022-08-16T08:41:46.520Z,100791.31
2022-08-16T08:44:36.429Z,100793.22
2022-08-16T08:47:24.742Z,100800.22
2022-08-16T08:50:11.361Z,100802.75
2022-08-16T08:53:17.185Z,100802.66
2022-08-16T08:56:23.398Z,100802.69
2022-08-16T08:59:20.305Z,100812.00
2022-08-16T09:02:09.008Z,100807.91
2022-08-16T09:05:15.649Z,100821.41
2022-08-16T09:08:05.814Z,100805.34
2022-08-16T09:11:24.225Z,100810.31
2022-08-16T09:14:27.343Z,100811.03
2022-08-16T09:17:31.483Z,100817.66
2022-08-16T09:20:19.953Z,100819.25
2022-08-16T09:23:06.150Z,100823.63
2022-08-16T09:26:01.129Z,100819.38
2022-08-16T09:29:15.674Z,100818.34
2022-08-16T09:31:55.533Z,100819.88
2022-08-16T09:34:41.294Z,100821.44
2022-08-16T09:37:36.453Z,100826.44
2022-08-16T09:40:32.514Z,100824.47
2022-08-16T09:43:58.245Z,100828.09
2022-08-16T09:46:45.947Z,100827.19
2022-08-16T09:49:36.789Z,100827.66
2022-08-16T09:52:23.427Z,100831.63
2022-08-16T09:55:12.639Z,100827.38
2022-08-16T09:57:58.775Z,100834.34
2022-08-16T10:00:45.614Z,100836.34
2022-08-16T10:03:31.787Z,100834.72
2022-08-16T10:06:22.326Z,100830.00
2022-08-16T10:09:11.252Z,100831.53
2022-08-16T10:12:19.484Z,100841.28
2022-08-16T10:15:08.864Z,100831.88
2022-08-16T10:18:56.125Z,100825.28
2022-08-16T10:21:14.076Z,100837.25
2022-08-16T10:24:00.228Z,100834.63
2022-08-16T10:27:18.493Z,100838.78
2022-08-16T10:29:59.910Z,100833.03
2022-08-16T10:32:47.802Z,100840.19
2022-08-16T10:35:33.587Z,100851.28
2022-08-16T10:38:27.022Z,100854.13
2022-08-16T10:41:15.872Z,100848.53
2022-08-16T10:44:01.742Z,100844.31
2022-08-16T10:46:49.286Z,100840.78
2022-08-16T10:49:35.176Z,100848.69
2022-08-16T10:52:24.344Z,100845.81
2022-08-16T10:58:18.645Z,100856.88
2022-08-16T11:20:40.852Z,100862.78
2022-08-16T11:22:53.847Z,100864.13
2022-08-16T11:31:54.009Z,100867.19
2022-08-16T11:35:05.665Z,100864.50
2022-08-16T11:38:23.585Z,100872.00
2022-08-16T11:40:58.174Z,100870.19
2022-08-16T11:43:43.892Z,100878.31
2022-08-16T11:46:44.990Z,100877.34
2022-08-16T11:49:31.380Z,100879.41
2022-08-16T11:52:17.995Z,100880.47
2022-08-16T11:55:10.023Z,100875.47
2022-08-16T11:57:56.507Z,100873.69
2022-08-16T12:00:50.441Z,100879.84
2022-08-16T12:03:37.601Z,100876.19
2022-08-16T12:06:25.231Z,100888.25
2022-08-16T12:09:15.807Z,100876.09
2022-08-16T12:12:02.999Z,100883.09
2022-08-16T12:14:49.066Z,100888.72
2022-08-16T12:17:39.115Z,100886.94
2022-08-16T12:20:34.515Z,100887.69
2022-08-16T12:23:20.186Z,100888.66
2022-08-16T12:26:10.391Z,100892.84
2022-08-16T12:28:56.676Z,100898.03
2022-08-16T12:32:01.555Z,100899.06
2022-08-16T12:34:52.613Z,100901.59
2022-08-16T12:37:39.197Z,100899.00
2022-08-16T12:40:35.385Z,100903.34
2022-08-16T12:43:23.461Z,100906.22
2022-08-16T12:46:12.831Z,100900.69
2022-08-16T12:49:01.221Z,100898.53
2022-08-16T12:51:58.872Z,100898.34
2022-08-16T12:54:45.798Z,100905.38
2022-08-16T12:57:40.668Z,100916.19
2022-08-16T13:00:33.168Z,100909.03
2022-08-16T13:03:21.504Z,100906.31
2022-08-16T13:06:08.198Z,100916.78
2022-08-16T13:08:55.413Z,100904.53
2022-08-16T13:11:49.233Z,100912.16
2022-08-16T13:14:44.179Z,100913.03
2022-08-16T13:17:30.471Z,100914.88
2022-08-16T13:20:19.586Z,100906.81
2022-08-16T13:23:09.967Z,100917.16
2022-08-16T13:25:57.483Z,100917.16
2022-08-16T13:28:47.674Z,100917.81
2022-08-16T13:31:33.624Z,100915.94
2022-08-16T13:34:19.200Z,100915.75
2022-08-16T13:37:04.976Z,100913.09
2022-08-16T13:39:51.918Z,100919.78
2022-08-16T13:42:41.490Z,100909.91
2022-08-16T13:45:33.191Z,100913.34
2022-08-16T13:48:24.385Z,100907.44
2022-08-16T13:51:15.785Z,100904.81
2022-08-16T13:54:04.019Z,100905.28
2022-08-16T13:56:49.956Z,100901.19
2022-08-16T13:59:35.292Z,100900.91
2022-08-16T14:02:23.882Z,100896.28
2022-08-16T14:05:10.944Z,100896.66
2022-08-16T14:07:56.636Z,100896.91
2022-08-16T14:10:43.729Z,100901.28
2022-08-16T14:13:29.299Z,100898.94
2022-08-16T14:16:23.941Z,100896.38
2022-08-16T14:19:18.997Z,100899.31
2022-08-16T14:22:14.909Z,100899.88
2022-08-16T14:25:10.275Z,100912.09
2022-08-16T14:27:56.083Z,100915.16
2022-08-16T14:30:41.948Z,100920.75
2022-08-16T14:33:27.486Z,100908.38
2022-08-16T14:36:18.784Z,100918.06
2022-08-16T14:39:14.963Z,100924.50
2022-08-16T14:42:10.641Z,100929.25
2022-08-16T14:45:00.528Z,100930.31
2022-08-16T14:47:46.537Z,100933.00
2022-08-16T14:50:35.626Z,100922.69
2022-08-16T14:53:24.372Z,100934.22
2022-08-16T14:56:14.993Z,100935.16
2022-08-16T14:59:16.105Z,100936.09
2022-08-16T15:02:02.474Z,100936.22
2022-08-16T15:04:51.188Z,100944.84
2022-08-16T15:07:40.228Z,100945.88
2022-08-16T15:10:26.581Z,100946.00
2022-08-16T15:13:13.662Z,100938.22
2022-08-16T15:16:03.103Z,100946.94
2022-08-16T15:18:49.482Z,100951.31
2022-08-16T15:21:35.788Z,100948.63
2022-08-16T15:24:22.356Z,100953.78
2022-08-16T15:27:08.242Z,100955.66
2022-08-16T15:29:57.723Z,100953.00
2022-08-16T15:32:43.795Z,100953.88
2022-08-16T15:35:33.511Z,100961.84
2022-08-16T15:38:54.581Z,100959.34
2022-08-16T15:41:44.355Z,100960.19
2022-08-16T15:44:44.677Z,100961.03
2022-08-16T15:47:38.823Z,100967.09
2022-08-16T15:50:24.957Z,100966.31
2022-08-16T15:53:15.055Z,100962.72
2022-08-16T15:56:01.417Z,100967.03
2022-08-16T15:58:55.745Z,100958.19
2022-08-16T16:01:41.420Z,100970.44
2022-08-16T16:04:31.459Z,100965.13
2022-08-16T16:07:17.233Z,100975.75
2022-08-16T16:10:07.881Z,100971.53
2022-08-16T16:13:01.900Z,100970.78
2022-08-16T16:15:52.792Z,100973.53
2022-08-16T16:18:39.560Z,100970.06
2022-08-16T16:21:27.684Z,100972.66
2022-08-16T16:24:24.115Z,100965.66
2022-08-16T16:27:16.366Z,100965.59
2022-08-16T16:30:03.420Z,100971.75
2022-08-16T16:33:11.033Z,100973.44
2022-08-16T16:36:00.145Z,100981.41
2022-08-16T16:38:47.704Z,100976.13
2022-08-16T16:41:33.511Z,100985.81
2022-08-16T16:44:32.054Z,100983.19
2022-08-16T16:47:21.857Z,100983.19
2022-08-16T16:50:09.380Z,100986.47
2022-08-16T16:52:57.021Z,100986.44
2022-08-16T16:55:43.398Z,100983.75
2022-08-16T16:58:53.301Z,100990.66
2022-08-16T17:01:57.729Z,100994.09
2022-08-16T17:04:49.067Z,101003.66
2022-08-16T17:07:34.675Z,100996.81
2022-08-16T17:10:46.209Z,100998.63
2022-08-16T17:13:26.623Z,100998.59
2022-08-16T17:16:18.866Z,101007.44
2022-08-16T17:19:17.300Z,100996.00
2022-08-16T17:22:05.786Z,100992.50
2022-08-16T17:25:00.593Z,101002.28
2022-08-16T17:27:46.037Z,100991.03
2022-08-16T17:30:45.575Z,100991.13
2022-08-16T17:33:37.217Z,100995.66
2022-08-16T17:36:39.134Z,100994.81
2022-08-16T17:39:51.964Z,100995.81
2022-08-16T17:42:47.955Z,100998.44
2022-08-16T17:45:33.474Z,100999.31
2022-08-16T17:48:18.961Z,101001.94
2022-08-16T17:51:06.451Z,101000.28
2022-08-16T17:53:52.021Z,101016.16
2022-08-16T17:56:37.362Z,101015.31
2022-08-16T17:59:24.257Z,101013.59
2022-08-16T18:02:42.277Z,101018.03
2022-08-16T18:05:18.266Z,101013.59
2022-08-16T18:08:04.089Z,101026.84
2022-08-16T18:10:55.726Z,101028.59
2022-08-16T18:13:43.381Z,101033.09
2022-08-16T18:16:29.043Z,101034.78
2022-08-16T18:19:16.262Z,101040.34
2022-08-16T18:22:20.235Z,101047.41
2022-08-16T18:25:05.954Z,101051.81
2022-08-16T18:27:51.226Z,101045.72
2022-08-16T18:30:37.461Z,101063.25
2022-08-16T18:33:25.348Z,101060.78
2022-08-16T18:36:20.608Z,101062.69
2022-08-16T18:39:06.939Z,101068.94
2022-08-16T18:41:52.564Z,101077.78
2022-08-16T18:44:40.181Z,101083.19
2022-08-16T18:47:25.541Z,101078.91
2022-08-16T18:50:10.917Z,101085.19
2022-08-16T18:52:59.186Z,101079.13
2022-08-16T18:55:46.328Z,101083.59
2022-08-16T18:58:34.075Z,101088.09
2022-08-16T19:01:19.883Z,101091.66
2022-08-16T19:04:05.367Z,101102.28
2022-08-16T19:07:10.860Z,101098.84
2022-08-16T19:09:56.393Z,101101.56
2022-08-16T19:12:42.484Z,101097.22
2022-08-16T19:15:29.126Z,101117.41
2022-08-16T19:18:15.035Z,101108.69
2022-08-16T19:21:00.425Z,101124.53
2022-08-16T19:23:46.333Z,101118.47
2022-08-16T19:26:34.184Z,101124.69
2022-08-16T19:29:19.744Z,101123.81
2022-08-16T19:32:05.223Z,101128.34
2022-08-16T19:34:56.701Z,101136.25
2022-08-16T19:37:55.875Z,101133.72
2022-08-16T19:40:41.341Z,101140.78
2022-08-16T19:43:26.853Z,101145.19
2022-08-16T19:46:12.214Z,101149.63
2022-08-16T19:48:57.724Z,101157.56
2022-08-16T19:51:43.242Z,101160.22
2022-08-16T19:54:28.642Z,101168.22
2022-08-16T19:57:26.458Z,101174.44
2022-08-16T20:00:15.794Z,101173.66
2022-08-16T20:03:02.116Z,101178.97
2022-08-16T20:05:48.672Z,101181.72
2022-08-16T20:08:34.268Z,101187.03
2022-08-16T20:11:19.759Z,101189.69
2022-08-16T20:14:05.779Z,101195.88
2022-08-16T20:16:51.555Z,101202.94
2022-08-16T20:19:40.570Z,101194.22
2022-08-16T20:22:52.349Z,101205.63
2022-08-16T20:25:41.242Z,101203.94
2022-08-16T20:28:40.668Z,101215.38
2022-08-16T20:31:32.816Z,101216.28
2022-08-16T20:34:18.587Z,101221.56
2022-08-16T20:37:06.211Z,101228.56
2022-08-16T20:40:18.235Z,101226.84
2022-08-16T20:43:02.563Z,101238.31
2022-08-16T20:45:48.077Z,101249.72
2022-08-16T20:48:33.671Z,101232.31
2022-08-16T20:51:19.170Z,101248.97
2022-08-16T20:54:04.785Z,101252.47
2022-08-16T20:56:50.830Z,101251.66
2022-08-16T20:59:36.604Z,101259.56
2022-08-16T21:02:26.328Z,101248.22
2022-08-16T21:05:19.299Z,101258.72
2022-08-16T21:08:32.817Z,101252.66
2022-08-16T21:11:11.605Z,101257.03
2022-08-16T21:14:00.184Z,101259.69
2022-08-16T21:16:46.447Z,101264.06
2022-08-16T21:19:33.091Z,101260.63
2022-08-16T21:22:21.558Z,101263.25
2022-08-16T21:25:11.383Z,101278.16
2022-08-16T21:28:40.193Z,101272.94
2022-08-16T21:31:02.636Z,101270.34
2022-08-16T21:33:55.729Z,101274.75
2022-08-16T21:36:41.384Z,101271.25
2022-08-16T21:39:27.487Z,101280.00
2022-08-16T21:42:18.179Z,101278.25
2022-08-16T21:45:04.227Z,101291.38
2022-08-16T21:47:49.464Z,101294.00
2022-08-16T21:50:36.733Z,101285.25
2022-08-16T21:53:24.165Z,101287.03
2022-08-16T21:56:16.670Z,101284.41
2022-08-16T21:59:07.183Z,101287.06
2022-08-16T22:01:52.792Z,101285.31
2022-08-16T22:04:39.067Z,101286.19
2022-08-16T22:07:24.892Z,101298.41
2022-08-16T22:11:07.765Z,101294.94
2022-08-16T22:13:24.984Z,101303.66
2022-08-16T22:16:10.754Z,101303.66
2022-08-16T22:18:56.208Z,101304.56
2022-08-16T22:21:42.033Z,101300.19
2022-08-16T22:24:27.627Z,101306.28
2022-08-16T22:27:13.254Z,101304.53
2022-08-16T22:29:58.881Z,101296.69
2022-08-16T22:32:45.490Z,101295.81
2022-08-16T22:35:31.026Z,101305.41
2022-08-16T22:38:53.501Z,101297.56
2022-08-16T22:41:22.403Z,101291.47
2022-08-16T22:44:08.234Z,101305.41
2022-08-16T22:46:53.914Z,101307.16
2022-08-16T22:49:39.516Z,101313.25
2022-08-16T22:52:55.645Z,101310.66
2022-08-16T22:55:31.863Z,101314.97
2022-08-16T22:58:18.627Z,101315.84
2022-08-16T23:01:06.474Z,101314.97
2022-08-16T23:03:55.713Z,101319.31
2022-08-16T23:06:41.594Z,101319.31
2022-08-16T23:09:27.200Z,101319.31
2022-08-16T23:12:15.030Z,101323.66
2022-08-16T23:15:04.732Z,101318.44
2022-08-16T23:17:51.445Z,101314.97
2022-08-16T23:20:38.783Z,101317.56
2022-08-16T23:23:25.720Z,101320.16
2022-08-16T23:26:43.792Z,101321.00
2022-08-16T23:29:24.501Z,101327.97
2022-08-16T23:32:12.209Z,101328.84
2022-08-16T23:34:58.463Z,101328.78
2022-08-16T23:37:43.953Z,101327.00
2022-08-16T23:40:30.504Z,101338.31
2022-08-16T23:43:20.123Z,101328.69
2022-08-16T23:46:06.887Z,101333.06
2022-08-16T23:49:58.177Z,101320.84
2022-08-16T23:51:59.179Z,101316.47
2022-08-16T23:54:44.909Z,101315.59
2022-08-16T23:57:30.995Z,101320.81
